• Join FlightAware (Why Join?)
  • Login
  • US Flag 
07:01PM EDT


 

Airport Tracker/Info


-or-


 

Live Flight TrackerFlight Track Log ✈ UPS378 ✈ 20-Jun-2013 ✈ KMIA - MHLM / SAP

Flight Track Log - Related Links

Times and Time Zones

All times are in EDT time to prevent confusion due to time zone crossing. See the UPS378 flight status page for this flight to view local times or setup timezone preferences in your user account.

Time Position Orientation Groundspeed Altitude Reporting Facility
EDT Latitude Longitude Course Direction KTS MPH feet Rate Location/Type
09:00AM 25.8060 -80.3020 87° East 9 10  Level FlightAware
09:01AM 25.8060 -80.3030 270° West 2 2 120 Level FlightAware
09:03AM 25.8050 -80.3030 180° South 10 12 180 Level FlightAware
09:05AM 25.6611 -80.1959 214° Southwest  Level FlightAware Approximate
09:06AM 25.5606 -80.2517 209° Southwest  Level FlightAware Approximate
09:07AM 25.4608 -80.3141 209° Southwest  Level FlightAware Approximate
09:08AM 25.3611 -80.3764 209° Southwest  Level FlightAware Approximate
09:08AM 25.8030 -80.3010 209° Southwest 22 25  Level FlightAware
09:08AM 25.8030 -80.2970 90° East 86 99 1,200 Level FlightAware
09:09AM 25.8020 -80.2680 92° East 149 171 1,400 1,440 Climbing FlightAware
09:09AM 25.7930 -80.2450 113° Southeast 187 215 1,700 1,320 Climbing FlightAware
09:10AM 25.7820 -80.2190 115° Southeast 219 252 2,700 2,220 Climbing FlightAware
09:10AM 25.7680 -80.1900 118° Southeast 250 288 3,700 3,060 Climbing FlightAware
09:10AM 25.7560 -80.1720 127° Southeast 246 283 4,900 1,920 Climbing FlightAware
09:11AM 25.7280 -80.1610 161° South 258 297 6,000 2,820 Climbing FlightAware
09:12AM 25.6620 -80.1850 198° South 285 328 8,800 3,480 Climbing FlightAware
09:12AM 25.6470 -80.1920 203° Southwest 288 331 9,500 2,040 Climbing FlightAware
09:13AM 25.5750 -80.2290 205° Southwest 342 394 11,300 1,920 Climbing FlightAware
09:14AM 25.4933 -80.2706 205° Southwest 325 374 12,600 1,380 Climbing Miami Center
09:19AM 25.1430 -80.4850 205° Southwest 429 494 20,000 1,200 Climbing FlightAware
09:20AM 25.0790 -80.5270 211° Southwest 429 494 20,000  Level FlightAware
09:21AM 25.0280 -80.5610 211° Southwest 429 494 20,000  Level FlightAware
09:22AM 24.9400 -80.6190 211° Southwest 429 494 20,000 1,080 Level FlightAware
09:22AM 25.0750 -80.5280 31° Northeast 453 521 21,900 1,440 Climbing FlightAware
09:23AM 25.0180 -80.5650 210° Southwest 453 521 21,900 1,980 Level FlightAware
09:24AM 24.8440 -80.6790 211° Southwest 470 541 24,700 1,920 Climbing FlightAware
09:24AM 24.7830 -80.7190 211° Southwest 470 541 24,700  Level FlightAware
09:27AM 24.5650 -80.8630 211° Southwest 470 541 24,700 2,400 Level FlightAware
09:28AM 24.1270 -81.1380 210° Southwest 488 562 33,500 4,080 Climbing FlightAware
09:29AM 24.0500 -81.1860 210° Southwest 488 562 33,500  Level FlightAware
09:29AM 23.9710 -81.2360 210° Southwest 488 562 33,500  Level FlightAware
09:30AM 23.9060 -81.2770 210° Southwest 488 562 33,500  Level FlightAware
09:31AM 23.8240 -81.3290 210° Southwest 488 562 33,500  Level FlightAware
09:32AM 23.7630 -81.3680 210° Southwest 488 562 33,500  Level FlightAware
09:32AM 23.6830 -81.4180 210° Southwest 488 562 33,500  Level FlightAware
09:33AM 23.6070 -81.4660 210° Southwest 488 562 33,500  Level FlightAware
09:34AM 23.5470 -81.5040 210° Southwest 488 562 33,500  Level FlightAware
09:35AM 23.4450 -81.5680 210° Southwest 488 562 33,500 60 Level FlightAware
09:37AM 23.2794 -81.7060 217° Southwest  Level FlightAware Approximate
09:38AM 23.1847 -81.7848 217° Southwest  Level FlightAware Approximate
09:39AM 23.0899 -81.8634 217° Southwest  Level FlightAware Approximate
09:40AM 22.9951 -81.9419 217° Southwest  Level FlightAware Approximate
09:41AM 22.9003 -82.0203 217° Southwest  Level FlightAware Approximate
09:42AM 22.8055 -82.0986 217° Southwest  Level FlightAware Approximate
09:43AM 22.7106 -82.1768 217° Southwest  Level FlightAware Approximate
09:44AM 22.6157 -82.2548 217° Southwest  Level FlightAware Approximate
09:45AM 22.5207 -82.3328 217° Southwest  Level FlightAware Approximate
09:46AM 22.4257 -82.4106 217° Southwest  Level FlightAware Approximate
09:47AM 22.3307 -82.4884 217° Southwest  Level FlightAware Approximate
09:48AM 22.2356 -82.5660 217° Southwest  Level FlightAware Approximate
09:49AM 22.1405 -82.6436 217° Southwest  Level FlightAware Approximate
09:50AM 22.0453 -82.7210 217° Southwest  Level FlightAware Approximate
09:51AM 21.9501 -82.7983 217° Southwest  Level FlightAware Approximate
09:52AM 21.8549 -82.8755 217° Southwest  Level FlightAware Approximate
09:52AM 21.2900 -83.2630 217° Southwest 493 567 35,000  Level FlightAware
09:54AM 21.1336 -83.4011 219° Southwest  Level FlightAware Approximate
09:55AM 21.0415 -83.4822 219° Southwest  Level FlightAware Approximate
09:56AM 20.9494 -83.5632 219° Southwest  Level FlightAware Approximate
09:57AM 20.8572 -83.6441 219° Southwest  Level FlightAware Approximate
09:58AM 20.7651 -83.7249 219° Southwest  Level FlightAware Approximate
09:59AM 20.6728 -83.8055 219° Southwest  Level FlightAware Approximate
10:00AM 20.5806 -83.8861 219° Southwest  Level FlightAware Approximate
10:01AM 20.4883 -83.9667 219° Southwest  Level FlightAware Approximate
10:02AM 20.3955 -84.0482 218° Southwest  Level FlightAware Approximate
10:03AM 20.3005 -84.1249 215° Southwest  Level FlightAware Approximate
10:04AM 20.2033 -84.1984 215° Southwest  Level FlightAware Approximate
10:05AM 20.1061 -84.2718 215° Southwest  Level FlightAware Approximate
10:06AM 20.0088 -84.3451 215° Southwest  Level FlightAware Approximate
10:07AM 19.9115 -84.4183 215° Southwest  Level FlightAware Approximate
10:08AM 19.8142 -84.4914 215° Southwest  Level FlightAware Approximate
10:09AM 19.7169 -84.5645 215° Southwest  Level FlightAware Approximate
10:10AM 19.6195 -84.6374 215° Southwest  Level FlightAware Approximate
10:11AM 19.5221 -84.7103 215° Southwest  Level FlightAware Approximate
10:12AM 19.4247 -84.7831 215° Southwest  Level FlightAware Approximate
10:13AM 19.3272 -84.8558 215° Southwest  Level FlightAware Approximate
10:14AM 19.2297 -84.9284 215° Southwest  Level FlightAware Approximate
10:15AM 19.1322 -85.0009 215° Southwest  Level FlightAware Approximate
10:16AM 19.0346 -85.0733 215° Southwest  Level FlightAware Approximate
10:17AM 18.9370 -85.1457 215° Southwest  Level FlightAware Approximate
10:18AM 18.8395 -85.2179 215° Southwest  Level FlightAware Approximate
10:19AM 18.7418 -85.2901 215° Southwest  Level FlightAware Approximate
10:20AM 18.6442 -85.3622 215° Southwest  Level FlightAware Approximate
10:21AM 18.5465 -85.4342 215° Southwest  Level FlightAware Approximate
10:22AM 18.4488 -85.5061 215° Southwest  Level FlightAware Approximate
10:23AM 18.3510 -85.5780 215° Southwest  Level FlightAware Approximate
10:24AM 18.2533 -85.6497 215° Southwest  Level FlightAware Approximate
10:25AM 18.1555 -85.7214 215° Southwest  Level FlightAware Approximate
10:26AM 18.0576 -85.7931 215° Southwest  Level FlightAware Approximate
10:27AM 17.9598 -85.8646 215° Southwest  Level FlightAware Approximate
10:28AM 17.8619 -85.9360 215° Southwest  Level FlightAware Approximate
10:29AM 17.7640 -86.0074 215° Southwest  Level FlightAware Approximate
10:30AM 17.6661 -86.0787 215° Southwest  Level FlightAware Approximate
10:31AM 17.5681 -86.1499 215° Southwest  Level FlightAware Approximate
10:32AM 17.4701 -86.2210 215° Southwest  Level FlightAware Approximate
10:33AM 17.3722 -86.2921 215° Southwest  Level FlightAware Approximate
10:34AM 17.2741 -86.3631 215° Southwest  Level FlightAware Approximate
10:35AM 17.1713 -86.4215 189° South  Level FlightAware Approximate
10:36AM 17.0536 -86.4411 189° South  Level FlightAware Approximate
10:37AM 16.9355 -86.4572 186° South  Level FlightAware Approximate
10:38AM 16.8170 -86.4704 186° South  Level FlightAware Approximate
10:39AM 16.6985 -86.4833 180° South  Level FlightAware Approximate
10:40AM 16.5808 -86.4965 193° South  Level FlightAware Approximate
10:41AM 16.4622 -86.5065 183° South  Level FlightAware Approximate
10:42AM 16.3432 -86.5140 183° South  Level FlightAware Approximate
10:43AM 16.2674 -86.5856 237° Southwest  Level FlightAware Approximate
10:44AM 16.2024 -86.6897 237° Southwest  Level FlightAware Approximate
10:45AM 16.1373 -86.7936 237° Southwest  Level FlightAware Approximate
10:46AM 16.0715 -86.8970 238° Southwest  Level FlightAware Approximate
10:47AM 16.0078 -87.0017 238° Southwest  Level FlightAware Approximate
10:48AM 15.9440 -87.1065 238° Southwest  Level FlightAware Approximate
10:49AM 15.8802 -87.2111 238° Southwest  Level FlightAware Approximate
10:50AM 15.8170 -87.3161 238° Southwest  Level FlightAware Approximate
10:51AM 15.7578 -87.4235 237° Southwest  Level FlightAware Approximate
10:52AM 15.6921 -87.5267 237° Southwest  Level FlightAware Approximate
10:53AM 15.6251 -87.6291 235° Southwest  Level FlightAware Approximate
10:54AM 15.5664 -87.7337 235° Southwest  Level FlightAware Approximate
10:55AM 15.5011 -87.8371 238° Southwest  Level FlightAware Approximate
10:56AM 15.4526 -87.9236 270° West  Level Estimated
10:57AM 15.4526 -87.9236 270° West  Level Estimated
10:58AM 15.4526 -87.9236 270° West  Level Estimated
10:59AM 15.4526 -87.9236 270° West  Level Estimated
11:00AM 15.4526 -87.9236 270° West  Level Estimated
11:01AM 15.4526 -87.9236 270° West  Level Estimated
11:02AM 15.4526 -87.9236 270° West  Level Estimated
11:03AM 15.4526 -87.9236 270° West  Level Estimated
11:04AM 15.4526 -87.9236 270° West  Level Estimated
11:05AM 15.4526 -87.9236 270° West  Level Estimated
11:06AM 15.4526 -87.9236 270° West  Level Estimated
11:07AM 15.4526 -87.9236 270° West  Level Estimated
11:08AM 15.4526 -87.9236 270° West  Level Estimated
11:09AM 15.4526 -87.9236 270° West  Level Estimated
11:10AM 15.4526 -87.9236 270° West  Level Estimated
11:11AM 15.4526 -87.9236 270° West  Level Estimated
11:12AM 15.4526 -87.9236 270° West  Level Estimated
11:13AM 15.4526 -87.9236 270° West  Level Estimated
11:14AM 15.4526 -87.9236 270° West  Level Estimated